sensor_id;sensor_type;location;lat;lon;timestamp;pressure;altitude;pressure_sealevel;temperature;humidity
51999;BME280;38015;50.924;11.598;2023-04-07T00:00:29;99601.30;;;22.67;20.46
51999;BME280;38015;50.924;11.598;2023-04-07T00:03:01;99598.10;;;22.50;20.72
51999;BME280;38015;50.924;11.598;2023-04-07T00:05:30;99595.20;;;22.39;20.85
51999;BME280;38015;50.924;11.598;2023-04-07T00:08:01;99597.59;;;22.65;20.56
51999;BME280;38015;50.924;11.598;2023-04-07T00:10:33;99598.89;;;22.52;20.80
51999;BME280;38015;50.924;11.598;2023-04-07T00:13:02;99595.45;;;22.38;20.98
51999;BME280;38015;50.924;11.598;2023-04-07T00:15:32;99596.56;;;22.61;20.67
51999;BME280;38015;50.924;11.598;2023-04-07T00:18:03;99594.30;;;22.62;20.63
51999;BME280;38015;50.924;11.598;2023-04-07T00:20:33;99592.70;;;22.47;20.88
51999;BME280;38015;50.924;11.598;2023-04-07T00:23:03;99593.95;;;22.66;20.60
51999;BME280;38015;50.924;11.598;2023-04-07T00:25:34;99592.94;;;22.53;20.76
51999;BME280;38015;50.924;11.598;2023-04-07T00:28:04;99592.54;;;22.52;20.82
51999;BME280;38015;50.924;11.598;2023-04-07T00:30:34;99590.44;;;22.45;20.86
51999;BME280;38015;50.924;11.598;2023-04-07T00:33:05;99585.87;;;22.47;20.86
51999;BME280;38015;50.924;11.598;2023-04-07T00:35:35;99584.29;;;22.53;20.78
51999;BME280;38015;50.924;11.598;2023-04-07T00:38:06;99583.55;;;22.55;20.76
51999;BME280;38015;50.924;11.598;2023-04-07T00:40:36;99578.99;;;22.54;20.86
51999;BME280;38015;50.924;11.598;2023-04-07T00:43:07;99579.91;;;22.29;21.14
51999;BME280;38015;50.924;11.598;2023-04-07T00:45:38;99577.77;;;22.45;20.84
51999;BME280;38015;50.924;11.598;2023-04-07T00:48:09;99576.63;;;22.41;20.96
51999;BME280;38015;50.924;11.598;2023-04-07T00:50:39;99574.65;;;22.48;20.87
51999;BME280;38015;50.924;11.598;2023-04-07T00:53:11;99570.42;;;22.39;21.05
51999;BME280;38015;50.924;11.598;2023-04-07T00:55:40;99568.74;;;22.41;21.04
51999;BME280;38015;50.924;11.598;2023-04-07T00:58:10;99565.94;;;22.54;20.84
51999;BME280;38015;50.924;11.598;2023-04-07T01:00:47;99565.69;;;22.53;20.79
51999;BME280;38015;50.924;11.598;2023-04-07T01:03:18;99563.71;;;22.45;20.90
51999;BME280;38015;50.924;11.598;2023-04-07T01:05:47;99559.76;;;22.47;20.96
51999;BME280;38015;50.924;11.598;2023-04-07T01:08:14;99556.01;;;22.64;20.69
51999;BME280;38015;50.924;11.598;2023-04-07T01:10:48;99555.47;;;22.63;20.70
51999;BME280;38015;50.924;11.598;2023-04-07T01:13:24;99553.79;;;22.52;20.86
51999;BME280;38015;50.924;11.598;2023-04-07T01:15:50;99551.81;;;22.46;20.94
51999;BME280;38015;50.924;11.598;2023-04-07T01:18:19;99551.11;;;22.58;20.74
51999;BME280;38015;50.924;11.598;2023-04-07T01:20:45;99550.97;;;22.58;20.83
51999;BME280;38015;50.924;11.598;2023-04-07T01:23:20;99553.48;;;22.59;20.81
51999;BME280;38015;50.924;11.598;2023-04-07T01:26:02;99555.92;;;22.53;20.87
51999;BME280;38015;50.924;11.598;2023-04-07T01:30:48;99551.20;;;22.49;20.94
51999;BME280;38015;50.924;11.598;2023-04-07T01:33:17;99552.23;;;22.55;20.85
51999;BME280;38015;50.924;11.598;2023-04-07T01:35:48;99552.35;;;22.56;20.82
51999;BME280;38015;50.924;11.598;2023-04-07T01:38:18;99549.53;;;22.52;20.95
51999;BME280;38015;50.924;11.598;2023-04-07T01:40:48;99547.43;;;22.56;20.87
51999;BME280;38015;50.924;11.598;2023-04-07T01:43:19;99545.62;;;22.41;21.08
51999;BME280;38015;50.924;11.598;2023-04-07T01:45:50;99544.21;;;22.44;21.03
51999;BME280;38015;50.924;11.598;2023-04-07T01:48:20;99545.31;;;22.45;21.10
51999;BME280;38015;50.924;11.598;2023-04-07T01:50:53;99542.35;;;22.33;21.24
51999;BME280;38015;50.924;11.598;2023-04-07T01:53:23;99543.57;;;22.51;21.03
51999;BME280;38015;50.924;11.598;2023-04-07T01:55:52;99545.89;;;22.31;21.22
51999;BME280;38015;50.924;11.598;2023-04-07T01:58:22;99547.35;;;22.42;21.07
51999;BME280;38015;50.924;11.598;2023-04-07T02:00:52;99547.13;;;22.30;21.21
51999;BME280;38015;50.924;11.598;2023-04-07T02:03:27;99546.57;;;22.39;21.17
51999;BME280;38015;50.924;11.598;2023-04-07T02:05:54;99543.86;;;22.36;21.18
51999;BME280;38015;50.924;11.598;2023-04-07T02:08:27;99542.26;;;22.25;21.30
51999;BME280;38015;50.924;11.598;2023-04-07T02:10:54;99540.69;;;22.35;21.17
51999;BME280;38015;50.924;11.598;2023-04-07T02:13:25;99540.56;;;22.39;21.12
51999;BME280;38015;50.924;11.598;2023-04-07T02:15:57;99538.51;;;22.44;21.07
51999;BME280;38015;50.924;11.598;2023-04-07T02:18:26;99535.29;;;22.35;21.16
51999;BME280;38015;50.924;11.598;2023-04-07T02:20:58;99533.79;;;22.38;21.15
51999;BME280;38015;50.924;11.598;2023-04-07T02:23:26;99533.23;;;22.53;20.97
51999;BME280;38015;50.924;11.598;2023-04-07T02:25:57;99534.70;;;22.51;21.06
51999;BME280;38015;50.924;11.598;2023-04-07T02:28:27;99534.38;;;22.31;21.29
51999;BME280;38015;50.924;11.598;2023-04-07T02:30:58;99533.09;;;22.51;20.98
51999;BME280;38015;50.924;11.598;2023-04-07T02:33:28;99530.38;;;22.48;21.07
51999;BME280;38015;50.924;11.598;2023-04-07T02:35:58;99532.92;;;22.37;21.22
51999;BME280;38015;50.924;11.598;2023-04-07T02:38:29;99533.72;;;22.23;21.37
51999;BME280;38015;50.924;11.598;2023-04-07T02:40:59;99532.43;;;22.48;21.06
51999;BME280;38015;50.924;11.598;2023-04-07T02:43:30;99529.19;;;22.15;21.47
51999;BME280;38015;50.924;11.598;2023-04-07T02:46:00;99528.25;;;22.51;21.07
51999;BME280;38015;50.924;11.598;2023-04-07T02:48:31;99529.12;;;22.48;21.07
51999;BME280;38015;50.924;11.598;2023-04-07T02:51:01;99530.36;;;22.46;21.20
51999;BME280;38015;50.924;11.598;2023-04-07T02:53:32;99532.38;;;22.53;21.04
51999;BME280;38015;50.924;11.598;2023-04-07T02:56:03;99532.04;;;22.38;21.25
51999;BME280;38015;50.924;11.598;2023-04-07T02:58:33;99530.67;;;22.58;20.95
51999;BME280;38015;50.924;11.598;2023-04-07T03:01:04;99528.70;;;22.45;21.12
51999;BME280;38015;50.924;11.598;2023-04-07T03:03:34;99531.04;;;22.50;21.11
51999;BME280;38015;50.924;11.598;2023-04-07T03:06:04;99531.09;;;22.45;21.16
51999;BME280;38015;50.924;11.598;2023-04-07T03:08:34;99527.49;;;22.36;21.30
51999;BME280;38015;50.924;11.598;2023-04-07T03:11:06;99526.42;;;22.20;21.51
51999;BME280;38015;50.924;11.598;2023-04-07T03:13:35;99523.09;;;22.41;21.23
51999;BME280;38015;50.924;11.598;2023-04-07T03:16:06;99526.34;;;22.29;21.39
51999;BME280;38015;50.924;11.598;2023-04-07T03:18:36;99528.45;;;22.26;21.40
51999;BME280;38015;50.924;11.598;2023-04-07T03:21:07;99525.21;;;22.37;21.28
51999;BME280;38015;50.924;11.598;2023-04-07T03:23:37;99527.69;;;22.37;21.31
51999;BME280;38015;50.924;11.598;2023-04-07T03:26:09;99527.09;;;22.28;21.45
51999;BME280;38015;50.924;11.598;2023-04-07T03:28:38;99524.38;;;22.20;21.54
51999;BME280;38015;50.924;11.598;2023-04-07T03:31:09;99523.15;;;22.26;21.46
51999;BME280;38015;50.924;11.598;2023-04-07T03:33:39;99522.14;;;22.33;21.34
51999;BME280;38015;50.924;11.598;2023-04-07T03:36:09;99519.61;;;22.39;21.29
51999;BME280;38015;50.924;11.598;2023-04-07T03:38:40;99521.54;;;22.32;21.41
51999;BME280;38015;50.924;11.598;2023-04-07T03:41:10;99519.36;;;22.45;21.28
51999;BME280;38015;50.924;11.598;2023-04-07T03:43:41;99519.76;;;22.39;21.29
51999;BME280;38015;50.924;11.598;2023-04-07T03:46:11;99519.46;;;22.25;21.48
51999;BME280;38015;50.924;11.598;2023-04-07T03:48:42;99518.47;;;22.33;21.41
51999;BME280;38015;50.924;11.598;2023-04-07T03:51:12;99515.06;;;22.41;21.30
51999;BME280;38015;50.924;11.598;2023-04-07T03:53:43;99514.53;;;22.52;21.19
51999;BME280;38015;50.924;11.598;2023-04-07T03:56:13;99514.74;;;22.26;21.51
51999;BME280;38015;50.924;11.598;2023-04-07T03:58:45;99513.52;;;22.43;21.22
51999;BME280;38015;50.924;11.598;2023-04-07T04:01:15;99514.26;;;22.24;21.52
51999;BME280;38015;50.924;11.598;2023-04-07T04:03:45;99516.41;;;22.43;21.20
51999;BME280;38015;50.924;11.598;2023-04-07T04:06:16;99518.27;;;22.30;21.41
51999;BME280;38015;50.924;11.598;2023-04-07T04:08:46;99520.79;;;22.43;21.18
51999;BME280;38015;50.924;11.598;2023-04-07T04:11:16;99522.04;;;22.34;21.31
51999;BME280;38015;50.924;11.598;2023-04-07T04:13:47;99522.09;;;22.32;21.30
51999;BME280;38015;50.924;11.598;2023-04-07T04:16:17;99523.49;;;22.19;21.54
51999;BME280;38015;50.924;11.598;2023-04-07T04:18:47;99526.63;;;22.32;21.36
51999;BME280;38015;50.924;11.598;2023-04-07T04:21:18;99526.50;;;22.32;21.33
51999;BME280;38015;50.924;11.598;2023-04-07T04:23:48;99527.55;;;22.32;21.36
51999;BME280;38015;50.924;11.598;2023-04-07T04:26:19;99529.06;;;22.27;21.46
51999;BME280;38015;50.924;11.598;2023-04-07T04:28:49;99527.63;;;22.37;21.29
51999;BME280;38015;50.924;11.598;2023-04-07T04:31:20;99528.65;;;22.41;21.29
51999;BME280;38015;50.924;11.598;2023-04-07T04:33:50;99529.31;;;22.27;21.46
51999;BME280;38015;50.924;11.598;2023-04-07T04:36:21;99528.62;;;22.48;21.18
51999;BME280;38015;50.924;11.598;2023-04-07T04:38:51;99527.48;;;22.29;21.49
51999;BME280;38015;50.924;11.598;2023-04-07T04:41:22;99529.30;;;22.29;21.48
51999;BME280;38015;50.924;11.598;2023-04-07T04:43:54;99529.99;;;22.30;21.43
51999;BME280;38015;50.924;11.598;2023-04-07T04:46:24;99533.09;;;22.39;21.32
51999;BME280;38015;50.924;11.598;2023-04-07T04:48:54;99534.57;;;22.35;21.38
51999;BME280;38015;50.924;11.598;2023-04-07T04:51:24;99533.06;;;22.45;21.20
51999;BME280;38015;50.924;11.598;2023-04-07T04:53:55;99530.23;;;22.31;21.41
51999;BME280;38015;50.924;11.598;2023-04-07T04:56:25;99533.29;;;22.45;21.17
51999;BME280;38015;50.924;11.598;2023-04-07T04:58:55;99535.48;;;22.38;21.28
51999;BME280;38015;50.924;11.598;2023-04-07T05:01:26;99536.27;;;22.28;21.46
51999;BME280;38015;50.924;11.598;2023-04-07T05:03:56;99535.67;;;22.43;21.25
51999;BME280;38015;50.924;11.598;2023-04-07T05:06:27;99535.96;;;22.34;21.39
51999;BME280;38015;50.924;11.598;2023-04-07T05:08:59;99536.56;;;22.47;21.18
51999;BME280;38015;50.924;11.598;2023-04-07T05:11:28;99533.98;;;22.45;21.18
51999;BME280;38015;50.924;11.598;2023-04-07T05:13:58;99533.65;;;22.41;21.24
51999;BME280;38015;50.924;11.598;2023-04-07T05:16:29;99533.42;;;22.31;21.43
51999;BME280;38015;50.924;11.598;2023-04-07T05:18:59;99532.57;;;22.18;21.71
51999;BME280;38015;50.924;11.598;2023-04-07T05:21:30;99531.68;;;22.32;21.42
51999;BME280;38015;50.924;11.598;2023-04-07T05:24:00;99530.82;;;22.18;21.59
51999;BME280;38015;50.924;11.598;2023-04-07T05:26:30;99528.89;;;22.44;21.26
51999;BME280;38015;50.924;11.598;2023-04-07T05:29:01;99529.44;;;22.40;21.34
51999;BME280;38015;50.924;11.598;2023-04-07T05:31:31;99530.18;;;22.34;21.43
51999;BME280;38015;50.924;11.598;2023-04-07T05:34:04;99530.29;;;22.42;21.31
51999;BME280;38015;50.924;11.598;2023-04-07T05:36:33;99527.93;;;22.43;21.28
51999;BME280;38015;50.924;11.598;2023-04-07T05:39:03;99524.35;;;22.32;21.42
51999;BME280;38015;50.924;11.598;2023-04-07T05:41:33;99526.17;;;22.48;21.23
51999;BME280;38015;50.924;11.598;2023-04-07T05:44:06;99527.88;;;22.30;21.47
51999;BME280;38015;50.924;11.598;2023-04-07T05:46:34;99528.23;;;22.33;21.46
51999;BME280;38015;50.924;11.598;2023-04-07T05:49:05;99527.81;;;22.27;21.54
51999;BME280;38015;50.924;11.598;2023-04-07T05:51:35;99530.20;;;22.37;21.36
51999;BME280;38015;50.924;11.598;2023-04-07T05:54:07;99529.07;;;22.45;21.25
51999;BME280;38015;50.924;11.598;2023-04-07T05:56:36;99531.29;;;22.42;21.26
51999;BME280;38015;50.924;11.598;2023-04-07T05:59:07;99533.64;;;22.49;21.22
51999;BME280;38015;50.924;11.598;2023-04-07T06:01:38;99533.42;;;22.47;21.26
51999;BME280;38015;50.924;11.598;2023-04-07T06:04:07;99535.60;;;22.48;21.22
51999;BME280;38015;50.924;11.598;2023-04-07T06:06:38;99537.36;;;22.54;21.12
51999;BME280;38015;50.924;11.598;2023-04-07T06:09:08;99538.04;;;22.60;21.06
51999;BME280;38015;50.924;11.598;2023-04-07T06:11:41;99537.32;;;22.59;21.03
51999;BME280;38015;50.924;11.598;2023-04-07T06:14:09;99540.32;;;22.61;21.03
51999;BME280;38015;50.924;11.598;2023-04-07T06:16:40;99540.20;;;22.60;21.10
51999;BME280;38015;50.924;11.598;2023-04-07T06:19:10;99543.75;;;22.66;21.04
51999;BME280;38015;50.924;11.598;2023-04-07T06:21:41;99546.69;;;22.85;20.70
51999;BME280;38015;50.924;11.598;2023-04-07T06:24:11;99547.66;;;22.84;20.72
51999;BME280;38015;50.924;11.598;2023-04-07T06:26:43;99546.85;;;22.84;20.72
51999;BME280;38015;50.924;11.598;2023-04-07T06:29:12;99544.83;;;22.93;20.59
51999;BME280;38015;50.924;11.598;2023-04-07T06:31:43;99546.78;;;23.09;20.42
51999;BME280;38015;50.924;11.598;2023-04-07T06:34:13;99547.40;;;23.07;20.44
51999;BME280;38015;50.924;11.598;2023-04-07T06:36:44;99547.14;;;23.29;20.12
51999;BME280;38015;50.924;11.598;2023-04-07T06:39:14;99545.49;;;23.45;19.87
51999;BME280;38015;50.924;11.598;2023-04-07T06:41:44;99545.22;;;23.44;19.91
51999;BME280;38015;50.924;11.598;2023-04-07T06:44:15;99546.17;;;23.57;19.73
51999;BME280;38015;50.924;11.598;2023-04-07T06:46:45;99544.29;;;23.50;19.84
51999;BME280;38015;50.924;11.598;2023-04-07T06:49:17;99547.24;;;23.51;19.88
51999;BME280;38015;50.924;11.598;2023-04-07T06:51:46;99547.84;;;23.58;19.72
51999;BME280;38015;50.924;11.598;2023-04-07T06:54:19;99545.55;;;23.60;19.72
51999;BME280;38015;50.924;11.598;2023-04-07T06:56:47;99540.84;;;23.59;19.70
51999;BME280;38015;50.924;11.598;2023-04-07T06:59:17;99539.07;;;23.40;20.01
51999;BME280;38015;50.924;11.598;2023-04-07T07:01:48;99537.63;;;23.45;19.95
51999;BME280;38015;50.924;11.598;2023-04-07T07:04:18;99537.21;;;23.44;19.96
51999;BME280;38015;50.924;11.598;2023-04-07T07:06:49;99537.72;;;23.42;20.01
51999;BME280;38015;50.924;11.598;2023-04-07T07:09:19;99539.27;;;23.50;19.89
51999;BME280;38015;50.924;11.598;2023-04-07T07:11:52;99544.18;;;23.51;19.89
51999;BME280;38015;50.924;11.598;2023-04-07T07:14:20;99544.29;;;23.79;19.54
51999;BME280;38015;50.924;11.598;2023-04-07T07:16:50;99545.31;;;23.84;19.49
51999;BME280;38015;50.924;11.598;2023-04-07T07:19:20;99545.10;;;23.99;19.28
51999;BME280;38015;50.924;11.598;2023-04-07T07:21:50;99547.17;;;23.94;19.34
51999;BME280;38015;50.924;11.598;2023-04-07T07:24:21;99552.36;;;23.71;19.67
51999;BME280;38015;50.924;11.598;2023-04-07T07:26:51;99556.47;;;23.68;19.75
51999;BME280;38015;50.924;11.598;2023-04-07T07:29:22;99557.16;;;23.78;19.60
51999;BME280;38015;50.924;11.598;2023-04-07T07:31:52;99557.81;;;23.82;19.55
51999;BME280;38015;50.924;11.598;2023-04-07T07:34:24;99557.67;;;23.79;19.63
51999;BME280;38015;50.924;11.598;2023-04-07T07:36:53;99555.15;;;23.96;19.39
51999;BME280;38015;50.924;11.598;2023-04-07T07:39:23;99556.28;;;24.00;19.31
51999;BME280;38015;50.924;11.598;2023-04-07T07:41:54;99557.35;;;23.93;19.42
51999;BME280;38015;50.924;11.598;2023-04-07T07:44:24;99559.36;;;23.89;19.51
51999;BME280;38015;50.924;11.598;2023-04-07T07:46:55;99560.46;;;23.79;19.68
51999;BME280;38015;50.924;11.598;2023-04-07T07:49:25;99561.01;;;23.68;19.82
51999;BME280;38015;50.924;11.598;2023-04-07T07:51:56;99563.67;;;23.93;19.49
51999;BME280;38015;50.924;11.598;2023-04-07T07:54:27;99560.97;;;24.00;19.39
51999;BME280;38015;50.924;11.598;2023-04-07T07:56:57;99561.03;;;23.87;19.58
51999;BME280;38015;50.924;11.598;2023-04-07T07:59:27;99559.99;;;23.72;19.78
51999;BME280;38015;50.924;11.598;2023-04-07T08:01:58;99561.24;;;23.94;19.52
51999;BME280;38015;50.924;11.598;2023-04-07T08:04:28;99561.03;;;23.93;19.55
51999;BME280;38015;50.924;11.598;2023-04-07T08:06:58;99562.64;;;23.95;19.53
51999;BME280;38015;50.924;11.598;2023-04-07T08:09:29;99563.22;;;24.03;19.42
51999;BME280;38015;50.924;11.598;2023-04-07T08:12:00;99568.97;;;23.82;19.72
51999;BME280;38015;50.924;11.598;2023-04-07T08:14:30;99567.47;;;23.88;19.67
51999;BME280;38015;50.924;11.598;2023-04-07T08:17:01;99566.43;;;23.97;19.55
51999;BME280;38015;50.924;11.598;2023-04-07T08:19:32;99567.72;;;23.96;19.58
51999;BME280;38015;50.924;11.598;2023-04-07T08:22:02;99568.79;;;23.95;19.63
51999;BME280;38015;50.924;11.598;2023-04-07T08:24:34;99567.71;;;23.93;19.65
51999;BME280;38015;50.924;11.598;2023-04-07T08:27:03;99567.48;;;23.95;19.65
51999;BME280;38015;50.924;11.598;2023-04-07T08:29:33;99569.55;;;23.93;19.67
51999;BME280;38015;50.924;11.598;2023-04-07T08:32:04;99567.10;;;24.09;19.45
51999;BME280;38015;50.924;11.598;2023-04-07T08:34:34;99567.13;;;24.09;19.47
51999;BME280;38015;50.924;11.598;2023-04-07T08:37:05;99568.50;;;23.94;19.69
51999;BME280;38015;50.924;11.598;2023-04-07T08:39:35;99568.02;;;24.02;19.60
51999;BME280;38015;50.924;11.598;2023-04-07T08:42:06;99567.80;;;23.99;19.66
51999;BME280;38015;50.924;11.598;2023-04-07T08:44:37;99564.96;;;24.03;19.62
51999;BME280;38015;50.924;11.598;2023-04-07T08:47:08;99563.05;;;23.99;19.68
51999;BME280;38015;50.924;11.598;2023-04-07T08:49:39;99563.10;;;23.93;19.77
51999;BME280;38015;50.924;11.598;2023-04-07T08:52:11;99562.22;;;23.85;19.89
51999;BME280;38015;50.924;11.598;2023-04-07T08:54:38;99556.68;;;23.95;19.80
51999;BME280;38015;50.924;11.598;2023-04-07T08:57:09;99558.46;;;23.92;19.82
51999;BME280;38015;50.924;11.598;2023-04-07T08:59:40;99557.42;;;24.00;19.70
51999;BME280;38015;50.924;11.598;2023-04-07T09:02:10;99560.12;;;23.70;20.14
51999;BME280;38015;50.924;11.598;2023-04-07T09:04:42;99557.65;;;24.04;19.68
51999;BME280;38015;50.924;11.598;2023-04-07T09:07:10;99555.43;;;23.98;19.75
51999;BME280;38015;50.924;11.598;2023-04-07T09:09:43;99558.66;;;23.68;20.11
51999;BME280;38015;50.924;11.598;2023-04-07T09:12:11;99555.96;;;23.82;20.00
51999;BME280;38015;50.924;11.598;2023-04-07T09:14:42;99554.27;;;23.88;19.93
51999;BME280;38015;50.924;11.598;2023-04-07T09:17:13;99551.79;;;23.81;20.02
51999;BME280;38015;50.924;11.598;2023-04-07T09:19:44;99549.00;;;23.92;19.92
51999;BME280;38015;50.924;11.598;2023-04-07T09:22:14;99547.26;;;23.90;19.96
51999;BME280;38015;50.924;11.598;2023-04-07T09:24:44;99548.10;;;23.89;19.97
51999;BME280;38015;50.924;11.598;2023-04-07T09:27:17;99547.95;;;23.78;20.10
51999;BME280;38015;50.924;11.598;2023-04-07T09:29:46;99542.62;;;23.90;19.97
51999;BME280;38015;50.924;11.598;2023-04-07T09:32:33;99539.67;;;23.87;20.02
51999;BME280;38015;50.924;11.598;2023-04-07T09:34:52;99539.66;;;23.90;19.98
51999;BME280;38015;50.924;11.598;2023-04-07T09:37:21;99539.30;;;24.07;19.76
51999;BME280;38015;50.924;11.598;2023-04-07T09:39:49;99537.66;;;24.00;19.86
51999;BME280;38015;50.924;11.598;2023-04-07T09:42:19;99532.81;;;23.85;20.05
51999;BME280;38015;50.924;11.598;2023-04-07T09:44:49;99529.81;;;23.87;20.06
51999;BME280;38015;50.924;11.598;2023-04-07T09:47:25;99529.48;;;23.95;19.95
51999;BME280;38015;50.924;11.598;2023-04-07T09:49:51;99528.12;;;23.94;19.95
51999;BME280;38015;50.924;11.598;2023-04-07T09:52:47;99524.02;;;23.66;20.45
51999;BME280;38015;50.924;11.598;2023-04-07T09:54:51;99524.33;;;24.00;19.89
51999;BME280;38015;50.924;11.598;2023-04-07T09:57:21;99522.93;;;23.75;20.25
51999;BME280;38015;50.924;11.598;2023-04-07T09:59:52;99523.24;;;23.96;19.96
51999;BME280;38015;50.924;11.598;2023-04-07T10:02:22;99528.03;;;23.92;20.01
51999;BME280;38015;50.924;11.598;2023-04-07T10:04:52;99526.53;;;23.83;20.00
51999;BME280;38015;50.924;11.598;2023-04-07T10:07:23;99524.83;;;23.74;20.12
51999;BME280;38015;50.924;11.598;2023-04-07T10:09:56;99529.00;;;23.85;19.96
51999;BME280;38015;50.924;11.598;2023-04-07T10:12:24;99525.73;;;23.97;19.82
51999;BME280;38015;50.924;11.598;2023-04-07T10:14:55;99524.65;;;23.86;19.91
51999;BME280;38015;50.924;11.598;2023-04-07T10:17:27;99524.50;;;23.87;19.88
51999;BME280;38015;50.924;11.598;2023-04-07T10:19:57;99522.57;;;23.88;19.92
51999;BME280;38015;50.924;11.598;2023-04-07T10:22:26;99526.42;;;23.88;19.96
51999;BME280;38015;50.924;11.598;2023-04-07T10:24:58;99520.28;;;23.81;20.02
51999;BME280;38015;50.924;11.598;2023-04-07T10:27:31;99516.85;;;23.72;20.04
51999;BME280;38015;50.924;11.598;2023-04-07T10:29:58;99515.08;;;23.69;20.12
51999;BME280;38015;50.924;11.598;2023-04-07T10:32:27;99510.31;;;23.40;20.33
51999;BME280;38015;50.924;11.598;2023-04-07T10:34:58;99508.74;;;23.55;20.27
51999;BME280;38015;50.924;11.598;2023-04-07T10:37:28;99505.41;;;23.03;20.98
51999;BME280;38015;50.924;11.598;2023-04-07T10:45:00;99498.57;;;23.07;20.86
51999;BME280;38015;50.924;11.598;2023-04-07T10:47:30;99500.13;;;22.97;21.07
51999;BME280;38015;50.924;11.598;2023-04-07T10:52:31;99508.06;;;22.94;21.12
51999;BME280;38015;50.924;11.598;2023-04-07T10:57:32;99506.90;;;23.02;20.92
51999;BME280;38015;50.924;11.598;2023-04-07T11:02:33;99507.55;;;22.83;21.18
51999;BME280;38015;50.924;11.598;2023-04-07T11:05:03;99505.41;;;23.07;20.80
51999;BME280;38015;50.924;11.598;2023-04-07T11:07:44;99507.13;;;23.31;20.45
51999;BME280;38015;50.924;11.598;2023-04-07T11:10:10;99504.75;;;23.10;20.64
51999;BME280;38015;50.924;11.598;2023-04-07T11:12:34;99510.70;;;22.89;20.94
51999;BME280;38015;50.924;11.598;2023-04-07T11:17:35;99507.80;;;23.19;20.64
51999;BME280;38015;50.924;11.598;2023-04-07T11:20:07;99509.91;;;22.95;20.76
51999;BME280;38015;50.924;11.598;2023-04-07T11:22:36;99506.84;;;22.87;21.04
51999;BME280;38015;50.924;11.598;2023-04-07T11:27:38;99508.11;;;22.73;21.03
51999;BME280;38015;50.924;11.598;2023-04-07T11:30:09;99513.29;;;22.82;20.99
51999;BME280;38015;50.924;11.598;2023-04-07T11:32:38;99507.67;;;22.75;21.12
51999;BME280;38015;50.924;11.598;2023-04-07T11:35:09;99510.50;;;22.77;20.99
51999;BME280;38015;50.924;11.598;2023-04-07T11:37:39;99515.97;;;22.82;20.82
51999;BME280;38015;50.924;11.598;2023-04-07T11:40:10;99516.55;;;22.93;20.75
51999;BME280;38015;50.924;11.598;2023-04-07T11:42:40;99514.54;;;22.77;20.93
51999;BME280;38015;50.924;11.598;2023-04-07T11:45:16;99506.39;;;22.73;21.04
51999;BME280;38015;50.924;11.598;2023-04-07T11:47:41;99513.44;;;22.99;20.58
51999;BME280;38015;50.924;11.598;2023-04-07T11:50:12;99507.24;;;22.79;20.97
51999;BME280;38015;50.924;11.598;2023-04-07T11:52:46;99506.07;;;22.72;21.03
51999;BME280;38015;50.924;11.598;2023-04-07T11:55:18;99511.40;;;22.74;20.96
51999;BME280;38015;50.924;11.598;2023-04-07T11:57:43;99506.54;;;23.06;20.62
51999;BME280;38015;50.924;11.598;2023-04-07T12:00:15;99510.48;;;22.77;20.97
51999;BME280;38015;50.924;11.598;2023-04-07T12:02:44;99504.66;;;22.86;20.92
51999;BME280;38015;50.924;11.598;2023-04-07T12:05:14;99504.77;;;22.59;21.20
51999;BME280;38015;50.924;11.598;2023-04-07T12:07:53;99504.77;;;22.79;21.02
51999;BME280;38015;50.924;11.598;2023-04-07T12:10:19;99509.34;;;22.81;20.91
51999;BME280;38015;50.924;11.598;2023-04-07T12:12:46;99505.94;;;22.89;20.81
51999;BME280;38015;50.924;11.598;2023-04-07T12:15:15;99506.70;;;22.78;20.93
51999;BME280;38015;50.924;11.598;2023-04-07T12:17:47;99506.17;;;22.85;20.90
51999;BME280;38015;50.924;11.598;2023-04-07T12:20:16;99507.71;;;22.93;20.75
51999;BME280;38015;50.924;11.598;2023-04-07T12:22:47;99507.63;;;22.68;21.15
51999;BME280;38015;50.924;11.598;2023-04-07T12:25:17;99506.63;;;23.10;20.58
51999;BME280;38015;50.924;11.598;2023-04-07T12:27:48;99502.56;;;23.07;20.64
51999;BME280;38015;50.924;11.598;2023-04-07T12:30:18;99504.38;;;22.89;20.94
51999;BME280;38015;50.924;11.598;2023-04-07T12:32:49;99501.41;;;22.77;21.08
51999;BME280;38015;50.924;11.598;2023-04-07T12:35:19;99508.74;;;22.85;21.00
51999;BME280;38015;50.924;11.598;2023-04-07T12:37:50;99509.17;;;22.79;21.06
51999;BME280;38015;50.924;11.598;2023-04-07T12:40:20;99514.82;;;22.93;20.87
51999;BME280;38015;50.924;11.598;2023-04-07T12:42:51;99511.26;;;22.85;21.00
51999;BME280;38015;50.924;11.598;2023-04-07T12:45:21;99512.78;;;22.84;21.00
51999;BME280;38015;50.924;11.598;2023-04-07T12:47:52;99508.91;;;22.86;20.99
51999;BME280;38015;50.924;11.598;2023-04-07T12:50:22;99507.85;;;22.92;20.86
51999;BME280;38015;50.924;11.598;2023-04-07T12:52:53;99508.12;;;22.79;21.09
51999;BME280;38015;50.924;11.598;2023-04-07T12:55:23;99508.71;;;22.94;20.91
51999;BME280;38015;50.924;11.598;2023-04-07T12:57:54;99507.27;;;22.86;21.05
51999;BME280;38015;50.924;11.598;2023-04-07T13:00:24;99502.08;;;22.92;20.90
51999;BME280;38015;50.924;11.598;2023-04-07T13:02:55;99502.12;;;22.83;21.02
51999;BME280;38015;50.924;11.598;2023-04-07T13:05:25;99504.05;;;22.85;21.01
51999;BME280;38015;50.924;11.598;2023-04-07T13:07:57;99506.04;;;22.86;20.98
51999;BME280;38015;50.924;11.598;2023-04-07T13:10:26;99505.65;;;22.90;20.95
51999;BME280;38015;50.924;11.598;2023-04-07T13:12:56;99509.79;;;22.78;21.12
51999;BME280;38015;50.924;11.598;2023-04-07T13:15:27;99511.17;;;22.98;20.88
51999;BME280;38015;50.924;11.598;2023-04-07T13:17:58;99513.02;;;22.73;21.19
51999;BME280;38015;50.924;11.598;2023-04-07T13:20:28;99507.96;;;22.82;21.06
51999;BME280;38015;50.924;11.598;2023-04-07T13:22:58;99505.73;;;23.06;20.83
51999;BME280;38015;50.924;11.598;2023-04-07T13:25:29;99506.44;;;22.82;20.98